createdAt,value
2018-06-02T00:02:06.471Z,74384.03
2018-06-02T00:04:36.538Z,74370.88
2018-06-02T00:07:06.020Z,74391.11
2018-06-02T00:09:35.688Z,74435.63
2018-06-02T00:12:05.865Z,74494.32
2018-06-02T00:14:35.916Z,74443.73
2018-06-02T00:17:05.469Z,74376.94
2018-06-02T00:19:35.949Z,74310.16
2018-06-02T00:22:05.680Z,74304.09
2018-06-02T00:24:35.186Z,74324.33
2018-06-02T00:27:05.238Z,74404.27
2018-06-02T00:29:34.669Z,74384.03
2018-06-02T00:32:04.146Z,74310.16
2018-06-02T00:34:34.295Z,74335.45
2018-06-02T00:37:04.070Z,74322.30
2018-06-02T00:39:33.825Z,74335.45
2018-06-02T00:42:03.858Z,74359.73
2018-06-02T00:44:33.396Z,74342.54
2018-06-02T00:47:03.033Z,74328.38
2018-06-02T00:49:32.609Z,74331.41
2018-06-02T00:52:02.274Z,74320.28
2018-06-02T00:54:40.384Z,74314.20
2018-06-02T00:57:10.145Z,74351.65
2018-06-02T00:59:39.663Z,74398.19
2018-06-02T01:02:09.858Z,74488.25
2018-06-02T01:04:39.540Z,74482.17
2018-06-02T01:07:09.146Z,74590.45
2018-06-02T01:09:39.317Z,74592.47
2018-06-02T01:12:10.906Z,74534.80
2018-06-02T01:14:40.624Z,74417.42
2018-06-02T01:17:10.325Z,74453.84
2018-06-02T01:19:39.700Z,74442.72
2018-06-02T01:22:09.077Z,74441.70
2018-06-02T01:24:39.046Z,74411.34
2018-06-02T01:27:08.882Z,74399.20
2018-06-02T01:29:39.095Z,74377.95
2018-06-02T01:32:08.433Z,74375.93
2018-06-02T01:34:37.981Z,74383.02
2018-06-02T01:37:07.979Z,74386.05
2018-06-02T01:39:37.607Z,74419.44
2018-06-02T01:42:07.221Z,74390.09
2018-06-02T01:44:36.725Z,74376.94
2018-06-02T01:47:06.409Z,74374.92
2018-06-02T01:49:38.346Z,74477.12
2018-06-02T01:52:09.444Z,74441.70
2018-06-02T01:54:40.947Z,74424.50
2018-06-02T01:57:10.537Z,74408.31
2018-06-02T01:59:39.871Z,74410.34
2018-06-02T02:02:09.660Z,74373.91
2018-06-02T02:04:39.604Z,74369.86
2018-06-02T02:07:09.116Z,74373.91
2018-06-02T02:09:38.450Z,74370.88
2018-06-02T02:12:08.339Z,74343.55
2018-06-02T02:14:38.056Z,74327.36
2018-06-02T02:17:07.780Z,74338.49
2018-06-02T02:19:37.397Z,74329.38
2018-06-02T02:22:06.944Z,74386.05
2018-06-02T02:24:36.707Z,74431.58
2018-06-02T02:27:06.260Z,74394.14
2018-06-02T02:29:36.020Z,74345.58
2018-06-02T02:32:05.666Z,74288.91
2018-06-02T02:34:35.531Z,74293.97
2018-06-02T02:37:05.016Z,74292.95
2018-06-02T02:39:35.182Z,74281.83
2018-06-02T02:42:05.016Z,74287.90
2018-06-02T02:44:34.453Z,74281.83
2018-06-02T02:47:04.313Z,74268.67
2018-06-02T02:49:34.105Z,74223.14
2018-06-02T02:52:03.809Z,74253.50
2018-06-02T02:54:34.071Z,74265.64
2018-06-02T02:57:03.742Z,74288.91
2018-06-02T02:59:33.653Z,74316.23
2018-06-02T03:02:03.357Z,74288.91
2018-06-02T03:04:32.717Z,74289.92
2018-06-02T03:07:02.459Z,74318.25
2018-06-02T03:09:32.092Z,74301.05
2018-06-02T03:12:03.176Z,74301.05
2018-06-02T03:14:33.216Z,74358.73
2018-06-02T03:17:02.887Z,74338.49
2018-06-02T03:19:32.559Z,74349.63
2018-06-02T03:22:02.689Z,74325.34
2018-06-02T03:24:31.981Z,74269.69
2018-06-02T03:27:01.325Z,74310.16
2018-06-02T03:29:30.900Z,74326.35
2018-06-02T03:32:00.160Z,74339.50
2018-06-02T03:34:29.626Z,74319.27
2018-06-02T03:36:59.785Z,74340.52
2018-06-02T03:39:29.344Z,74339.50
2018-06-02T03:41:58.860Z,74338.49
2018-06-02T03:44:28.641Z,74323.31
2018-06-02T03:46:58.782Z,74331.41
2018-06-02T03:49:28.556Z,74321.29
2018-06-02T03:51:58.619Z,74307.13
2018-06-02T03:54:28.334Z,74333.44
2018-06-02T03:56:57.788Z,74314.20
2018-06-02T03:59:27.528Z,74340.52
2018-06-02T04:01:57.089Z,74334.45
2018-06-02T04:04:26.710Z,74316.23
2018-06-02T04:06:56.960Z,74387.06
2018-06-02T04:09:26.536Z,74338.49
2018-06-02T04:11:56.388Z,74351.65
2018-06-02T04:14:26.425Z,74392.13
2018-06-02T04:16:56.124Z,74346.59
2018-06-02T04:19:25.825Z,74325.34
2018-06-02T04:21:55.792Z,74330.39
2018-06-02T04:24:25.293Z,74314.20
2018-06-02T04:26:54.937Z,74310.16
2018-06-02T04:29:25.122Z,74326.35
2018-06-02T04:31:54.839Z,74306.11
2018-06-02T04:34:24.220Z,74330.39
2018-06-02T04:36:53.754Z,74313.20
2018-06-02T04:39:23.276Z,74302.06
2018-06-02T04:41:53.462Z,74324.33
2018-06-02T04:44:23.184Z,74307.13
2018-06-02T04:46:52.797Z,74327.36
2018-06-02T04:49:22.611Z,74324.33
2018-06-02T04:51:52.291Z,74337.48
2018-06-02T04:54:21.750Z,74324.33
2018-06-02T04:56:51.854Z,74320.28
2018-06-02T04:59:21.860Z,74343.55
2018-06-02T05:01:51.444Z,74326.35
2018-06-02T05:04:21.619Z,74376.94
2018-06-02T05:06:51.338Z,74366.83
2018-06-02T05:09:20.829Z,74343.55
2018-06-02T05:11:50.345Z,74298.02
2018-06-02T05:14:19.955Z,74355.70
2018-06-02T05:16:49.962Z,74351.65
2018-06-02T05:19:19.937Z,74322.30
2018-06-02T05:21:49.849Z,74366.83
2018-06-02T05:24:19.700Z,74283.86
2018-06-02T05:26:49.083Z,74323.31
2018-06-02T05:29:18.732Z,74287.90
2018-06-02T05:31:48.705Z,74334.45
2018-06-02T05:34:19.610Z,74269.69
2018-06-02T05:36:49.847Z,74294.98
2018-06-02T05:39:19.332Z,74293.97
2018-06-02T05:41:48.844Z,74325.34
2018-06-02T05:44:18.271Z,74322.30
2018-06-02T05:46:47.954Z,74330.39
2018-06-02T05:49:17.403Z,74293.97
2018-06-02T05:51:46.947Z,74302.06
2018-06-02T05:54:16.640Z,74293.97
2018-06-02T05:56:46.333Z,74296.00
2018-06-02T05:59:16.683Z,74293.97
2018-06-02T06:01:48.022Z,74289.92
2018-06-02T06:04:17.628Z,74274.75
2018-06-02T06:06:47.240Z,74263.61
2018-06-02T06:09:17.049Z,74279.80
2018-06-02T06:11:46.513Z,74274.75
2018-06-02T06:14:15.988Z,74289.92
2018-06-02T06:16:45.809Z,74273.73
2018-06-02T06:19:15.352Z,74276.77
2018-06-02T06:21:45.073Z,74312.19
2018-06-02T06:24:14.690Z,74293.97
2018-06-02T06:26:44.437Z,74302.06
2018-06-02T06:29:15.152Z,74280.81
2018-06-02T06:31:44.481Z,74281.83
2018-06-02T06:34:13.901Z,74270.70
2018-06-02T06:36:43.482Z,74339.50
2018-06-02T06:39:13.260Z,74330.39
2018-06-02T06:41:42.568Z,74331.41
2018-06-02T06:44:12.463Z,74305.10
2018-06-02T06:46:42.355Z,74338.49
2018-06-02T06:49:11.972Z,74338.49
2018-06-02T06:51:41.788Z,74327.36
2018-06-02T06:54:11.804Z,74331.41
2018-06-02T06:56:41.565Z,74322.30
2018-06-02T06:59:11.577Z,74307.13
2018-06-02T07:01:41.183Z,74297.01
2018-06-02T07:04:10.937Z,74336.47
2018-06-02T07:06:40.991Z,74316.23
2018-06-02T07:09:10.895Z,74336.47
2018-06-02T07:11:40.799Z,74326.35
2018-06-02T07:14:10.447Z,74309.15
2018-06-02T07:16:40.568Z,74309.15
2018-06-02T07:19:10.781Z,74281.83
2018-06-02T07:21:41.708Z,74260.58
2018-06-02T07:24:11.768Z,74288.91
2018-06-02T07:26:41.689Z,74267.66
2018-06-02T07:29:11.629Z,74294.98
2018-06-02T07:31:41.256Z,74276.77
2018-06-02T07:34:10.609Z,74280.81
2018-06-02T07:36:40.351Z,74309.15
2018-06-02T07:39:10.121Z,74307.13
2018-06-02T07:41:40.409Z,74306.11
2018-06-02T07:44:10.110Z,74271.71
2018-06-02T07:46:40.381Z,74339.50
2018-06-02T07:49:10.161Z,74321.29
2018-06-02T07:51:39.985Z,74350.63
2018-06-02T07:54:09.360Z,74362.78
2018-06-02T07:56:38.634Z,74341.53
2018-06-02T07:59:08.685Z,74322.30
2018-06-02T08:01:37.991Z,74320.28
2018-06-02T08:04:07.529Z,74317.24
2018-06-02T08:06:37.162Z,74371.88
2018-06-02T08:09:07.473Z,74390.09
2018-06-02T08:11:36.978Z,74361.77
2018-06-02T08:14:06.672Z,74351.65
2018-06-02T08:16:35.992Z,74356.70
2018-06-02T08:19:06.514Z,74354.69
2018-06-02T08:21:35.937Z,74384.03
2018-06-02T08:24:05.677Z,74372.89
2018-06-02T08:26:35.750Z,74365.81
2018-06-02T08:29:05.156Z,74408.31
2018-06-02T08:31:34.671Z,74408.31
2018-06-02T08:34:06.603Z,74416.41
2018-06-02T08:36:37.073Z,74394.14
2018-06-02T08:39:07.857Z,74400.22
2018-06-02T08:41:37.481Z,74376.94
2018-06-02T08:44:07.368Z,74383.02
2018-06-02T08:46:36.674Z,74414.38
2018-06-02T08:49:08.242Z,74421.47
2018-06-02T08:51:37.672Z,74421.47
2018-06-02T08:54:08.324Z,74427.53
2018-06-02T08:56:38.295Z,74436.64
2018-06-02T08:59:08.576Z,74418.42
2018-06-02T09:01:37.888Z,74461.94
2018-06-02T09:04:08.061Z,74406.28
2018-06-02T09:06:37.979Z,74441.70
2018-06-02T09:09:07.725Z,74420.45
2018-06-02T09:11:37.755Z,74401.23
2018-06-02T09:14:07.324Z,74405.27
2018-06-02T09:16:36.572Z,74385.04
2018-06-02T09:19:05.919Z,74405.27
2018-06-02T09:21:35.254Z,74416.41
2018-06-02T09:24:04.958Z,74423.48
2018-06-02T09:26:34.340Z,74408.31
2018-06-02T09:30:28.263Z,74420.45
2018-06-02T09:32:57.764Z,74454.86
2018-06-02T09:35:27.254Z,74445.75
2018-06-02T09:37:57.213Z,74408.31
2018-06-02T09:40:29.196Z,74431.58
2018-06-02T09:42:59.548Z,74444.73
2018-06-02T09:45:31.661Z,74412.36
2018-06-02T09:48:04.656Z,74450.81
2018-06-02T09:50:34.492Z,74450.81
2018-06-02T09:53:04.117Z,74441.70
2018-06-02T09:55:33.477Z,74484.20
2018-06-02T09:58:03.668Z,74474.08
2018-06-02T10:00:33.396Z,74461.94
2018-06-02T10:03:02.722Z,74438.67
2018-06-02T10:05:32.806Z,74439.68
2018-06-02T10:08:02.567Z,74447.77
2018-06-02T10:10:32.274Z,74441.70
2018-06-02T10:13:02.712Z,74448.78
2018-06-02T10:15:32.072Z,74430.57
2018-06-02T10:18:01.769Z,74425.52
2018-06-02T10:20:31.727Z,74435.63
2018-06-02T10:23:01.386Z,74414.38
2018-06-02T10:25:30.678Z,74396.17
2018-06-02T10:28:00.539Z,74394.14
2018-06-02T10:30:29.903Z,74407.30
2018-06-02T10:32:59.576Z,74386.05
2018-06-02T10:35:29.396Z,74377.95
2018-06-02T10:37:58.843Z,74359.73
2018-06-02T10:40:28.268Z,74361.77
2018-06-02T10:42:57.568Z,74353.67
2018-06-02T10:45:27.256Z,74379.98
2018-06-02T10:47:56.585Z,74404.27
2018-06-02T10:50:25.889Z,74394.14
2018-06-02T10:52:55.412Z,74402.23
2018-06-02T10:55:25.258Z,74397.18
2018-06-02T10:57:54.573Z,74420.45
2018-06-02T11:00:23.876Z,74416.41
2018-06-02T11:02:53.355Z,74395.16
2018-06-02T11:05:22.667Z,74385.04
2018-06-02T11:07:52.200Z,74395.16
2018-06-02T11:10:21.561Z,74376.94
2018-06-02T11:12:50.911Z,74394.14
2018-06-02T11:15:21.653Z,74396.17
2018-06-02T11:17:51.015Z,74431.58
2018-06-02T11:20:20.416Z,74372.89
2018-06-02T11:22:49.894Z,74373.91
2018-06-02T11:25:19.975Z,74297.01
2018-06-02T11:27:49.261Z,74360.75
2018-06-02T11:30:18.819Z,74252.48
2018-06-02T11:32:48.201Z,74234.27
2018-06-02T11:35:17.907Z,74178.63
2018-06-02T11:37:47.308Z,74173.56
2018-06-02T11:40:16.941Z,74164.45
2018-06-02T11:42:46.212Z,74159.40
2018-06-02T11:45:15.534Z,74109.83
2018-06-02T11:47:44.929Z,74065.30
2018-06-02T11:50:14.320Z,74085.54
2018-06-02T11:52:43.998Z,74067.33
2018-06-02T11:57:48.470Z,74009.66
2018-06-02T12:00:18.005Z,73984.36
2018-06-02T12:02:47.243Z,73964.13
2018-06-02T12:05:18.558Z,74054.17
2018-06-02T12:07:47.879Z,74013.70
2018-06-02T12:10:17.625Z,74060.24
2018-06-02T12:12:48.815Z,74005.61
2018-06-02T12:15:18.244Z,74027.87
2018-06-02T12:17:50.145Z,74007.63
2018-06-02T12:20:21.923Z,73988.41
2018-06-02T12:22:52.297Z,73961.09
2018-06-02T12:25:22.372Z,73920.63
2018-06-02T12:27:53.383Z,74003.59
2018-06-02T12:30:23.710Z,73941.88
2018-06-02T12:32:53.835Z,73943.89
2018-06-02T12:35:23.190Z,73977.28
2018-06-02T12:37:53.805Z,74032.93
2018-06-02T12:40:23.937Z,74042.03
2018-06-02T12:42:53.362Z,74047.09
2018-06-02T12:45:23.604Z,74141.19
2018-06-02T12:47:53.100Z,74078.45
2018-06-02T12:50:22.561Z,74073.40
2018-06-02T12:52:52.305Z,74129.05
2018-06-02T12:55:22.131Z,74067.33
2018-06-02T12:57:52.341Z,74069.35
2018-06-02T13:00:24.549Z,74094.64
2018-06-02T13:02:53.908Z,74067.33
2018-06-02T13:05:23.352Z,74012.69
2018-06-02T13:07:52.933Z,73984.36
2018-06-02T13:10:22.984Z,73966.16
2018-06-02T13:12:53.199Z,73919.61
2018-06-02T13:15:23.191Z,73972.22
2018-06-02T13:17:53.057Z,74073.40
2018-06-02T13:20:22.411Z,74006.63
2018-06-02T13:22:52.689Z,74009.66
2018-06-02T13:25:22.011Z,74007.63
2018-06-02T13:27:51.427Z,73985.38
2018-06-02T13:30:21.325Z,73968.17
2018-06-02T13:32:50.719Z,73992.45
2018-06-02T13:35:20.160Z,74006.63
2018-06-02T13:37:50.068Z,73981.33
2018-06-02T13:40:19.496Z,73977.28
2018-06-02T13:42:48.828Z,73969.19
2018-06-02T13:45:18.673Z,73959.07
2018-06-02T13:47:48.005Z,73933.78
2018-06-02T13:50:18.328Z,73986.39
2018-06-02T13:52:48.355Z,73993.47
2018-06-02T13:55:17.712Z,74002.58
2018-06-02T13:57:47.084Z,74014.72
2018-06-02T14:00:17.199Z,73959.07
2018-06-02T14:02:46.710Z,73932.77
2018-06-02T14:05:16.380Z,73929.73
2018-06-02T14:07:46.368Z,73955.02
2018-06-02T14:10:15.721Z,73939.84
2018-06-02T14:12:45.320Z,73954.02
2018-06-02T14:15:14.761Z,73983.35
2018-06-02T14:17:44.076Z,73948.95
2018-06-02T14:20:13.881Z,73927.70
2018-06-02T14:22:43.153Z,73887.23
2018-06-02T14:25:12.425Z,73844.75
2018-06-02T14:27:42.676Z,73818.44
2018-06-02T14:30:15.110Z,73788.09
2018-06-02T14:32:44.404Z,73886.22
2018-06-02T14:35:13.846Z,74089.59
2018-06-02T14:37:43.339Z,73968.17
2018-06-02T14:40:13.163Z,73905.45
2018-06-02T14:42:43.278Z,73931.75
2018-06-02T14:45:12.547Z,73836.66
2018-06-02T14:47:42.615Z,73853.85
2018-06-02T14:50:11.910Z,73879.14
2018-06-02T14:52:41.424Z,73856.89
2018-06-02T14:55:16.880Z,73889.27
2018-06-02T14:57:47.080Z,73911.52
2018-06-02T15:00:16.460Z,73951.98
2018-06-02T15:02:46.171Z,73919.61
2018-06-02T15:05:17.427Z,73884.20
2018-06-02T15:07:46.916Z,74076.44
2018-06-02T15:10:16.334Z,74001.56
2018-06-02T15:12:45.833Z,73915.56
2018-06-02T15:15:15.511Z,73890.27
2018-06-02T15:17:46.140Z,73985.38
2018-06-02T15:20:15.760Z,73966.16
2018-06-02T15:22:45.204Z,73896.34
2018-06-02T15:25:14.542Z,73834.63
2018-06-02T15:27:44.174Z,73826.53
2018-06-02T15:30:13.507Z,73966.16
2018-06-02T15:32:43.378Z,73892.30
2018-06-02T15:35:13.296Z,73867.00
2018-06-02T15:37:42.579Z,73825.52
2018-06-02T15:40:11.892Z,73908.48
2018-06-02T15:42:41.219Z,73809.34
2018-06-02T15:45:10.827Z,73821.48
2018-06-02T15:47:40.467Z,73828.56
2018-06-02T15:50:09.910Z,73852.84
2018-06-02T15:52:40.095Z,73937.83
2018-06-02T15:55:09.390Z,74031.91
2018-06-02T15:57:38.784Z,73905.45
2018-06-02T16:00:08.133Z,73864.98
2018-06-02T16:02:37.991Z,73835.64
2018-06-02T16:05:08.283Z,73837.66
2018-06-02T16:07:37.606Z,73905.45
2018-06-02T16:10:07.417Z,73917.59
2018-06-02T16:12:37.089Z,73781.02
2018-06-02T16:15:06.682Z,73782.02
2018-06-02T16:17:36.754Z,73762.80
2018-06-02T16:20:06.384Z,73761.79
2018-06-02T16:22:35.757Z,73885.22
2018-06-02T16:25:05.585Z,73867.00
2018-06-02T16:27:34.979Z,73892.30
2018-06-02T16:30:04.511Z,73875.09
2018-06-02T16:32:34.281Z,73899.38
2018-06-02T16:35:04.228Z,73861.95
2018-06-02T16:37:33.613Z,73885.22
2018-06-02T16:40:03.777Z,73922.65
2018-06-02T16:42:33.165Z,73936.81
2018-06-02T16:45:02.761Z,73864.98
2018-06-02T16:47:32.671Z,73878.13
2018-06-02T16:50:02.093Z,73903.42
2018-06-02T16:52:31.380Z,73955.02
2018-06-02T16:55:01.012Z,73883.19
2018-06-02T16:57:30.392Z,73941.88
2018-06-02T16:59:59.728Z,73957.05
2018-06-02T17:02:29.362Z,73998.53
2018-06-02T17:04:58.903Z,73993.47
2018-06-02T17:07:28.159Z,74027.87
2018-06-02T17:09:57.884Z,74048.10
2018-06-02T17:12:27.376Z,74026.86
2018-06-02T17:14:56.748Z,74045.07
2018-06-02T17:17:26.078Z,74026.86
2018-06-02T17:19:55.511Z,74034.95
2018-06-02T17:22:25.637Z,74017.75
2018-06-02T17:24:55.233Z,74057.21
2018-06-02T17:27:24.567Z,74051.14
2018-06-02T17:29:54.661Z,74060.24
2018-06-02T17:32:24.169Z,74003.59
2018-06-02T17:34:53.594Z,74007.63
2018-06-02T17:37:22.841Z,74049.11
2018-06-02T17:39:52.423Z,73949.97
2018-06-02T17:42:21.846Z,73959.07
2018-06-02T17:44:51.683Z,73921.64
2018-06-02T17:47:21.069Z,73948.95
2018-06-02T17:49:50.892Z,73941.88
2018-06-02T17:52:20.534Z,74067.33
2018-06-02T17:54:49.997Z,74000.55
2018-06-02T17:57:19.713Z,73957.05
2018-06-02T17:59:53.691Z,73974.25
2018-06-02T18:02:23.507Z,73970.20
2018-06-02T18:04:53.490Z,73910.51
2018-06-02T18:07:22.912Z,73843.73
2018-06-02T18:09:52.317Z,73914.55
2018-06-02T18:12:21.875Z,74027.87
2018-06-02T18:14:51.560Z,74006.63
2018-06-02T18:17:21.096Z,74043.05
2018-06-02T18:19:50.554Z,74078.45
2018-06-02T18:22:19.982Z,74109.83
2018-06-02T18:24:49.369Z,74106.78
2018-06-02T18:27:18.665Z,74127.02
2018-06-02T18:29:48.312Z,74153.33
2018-06-02T18:32:17.638Z,74161.42
2018-06-02T18:34:47.518Z,74126.02
2018-06-02T18:37:16.879Z,74128.03
2018-06-02T18:39:46.211Z,74166.48
2018-06-02T18:42:15.567Z,74150.30
2018-06-02T18:44:45.146Z,74170.53
2018-06-02T18:47:14.476Z,74160.41
2018-06-02T18:49:44.112Z,74187.73
2018-06-02T18:52:13.483Z,74133.09
2018-06-02T18:54:42.855Z,74173.56
2018-06-02T18:57:12.595Z,74128.03
2018-06-02T18:59:42.801Z,74170.53
2018-06-02T19:02:12.098Z,74192.79
2018-06-02T19:04:41.748Z,74205.94
2018-06-02T19:07:11.708Z,74196.84
2018-06-02T19:09:41.239Z,74229.22
2018-06-02T19:12:11.369Z,74232.25
2018-06-02T19:14:40.639Z,74236.30
2018-06-02T19:17:09.959Z,74244.39
2018-06-02T19:19:39.806Z,74254.51
2018-06-02T19:22:09.310Z,74240.34
2018-06-02T19:24:38.639Z,74275.76
2018-06-02T19:27:08.346Z,74277.78
2018-06-02T19:29:37.635Z,74278.80
2018-06-02T19:32:07.080Z,74278.80
2018-06-02T19:34:36.744Z,74281.83
2018-06-02T19:37:06.258Z,74304.09
2018-06-02T19:39:35.643Z,74306.11
2018-06-02T19:42:05.791Z,74311.17
2018-06-02T19:44:35.189Z,74299.03
2018-06-02T19:47:04.508Z,74315.22
2018-06-02T19:49:34.280Z,74296.00
2018-06-02T19:52:03.754Z,74279.80
2018-06-02T19:54:33.281Z,74288.91
2018-06-02T19:57:03.553Z,74261.59
2018-06-02T19:59:32.996Z,74279.80
2018-06-02T20:02:02.370Z,74323.31
2018-06-02T20:04:32.244Z,74338.49
2018-06-02T20:07:01.552Z,74332.42
2018-06-02T20:09:31.049Z,74328.38
2018-06-02T20:12:00.765Z,74313.20
2018-06-02T20:14:30.169Z,74270.70
2018-06-02T20:16:59.805Z,74227.19
2018-06-02T20:19:29.194Z,74231.23
2018-06-02T20:21:58.499Z,74226.18
2018-06-02T20:24:30.211Z,74209.98
2018-06-02T20:26:59.865Z,74219.09
2018-06-02T20:29:29.133Z,74254.51
2018-06-02T20:31:58.631Z,74226.18
2018-06-02T20:34:28.462Z,74223.14
2018-06-02T20:36:58.108Z,74229.22
2018-06-02T20:39:27.806Z,74224.16
2018-06-02T20:41:57.721Z,74227.19
2018-06-02T20:44:28.185Z,74223.14
2018-06-02T20:46:57.705Z,74233.27
2018-06-02T20:49:27.350Z,74244.39
2018-06-02T20:51:58.194Z,74245.41
2018-06-02T20:54:27.744Z,74251.47
2018-06-02T20:56:57.512Z,74252.48
2018-06-02T20:59:26.933Z,74254.51
2018-06-02T21:02:11.083Z,74277.78
2018-06-02T21:04:40.709Z,74300.05
2018-06-02T21:07:10.454Z,74311.17
2018-06-02T21:09:40.860Z,74313.20
2018-06-02T21:12:10.815Z,74305.10
2018-06-02T21:14:40.811Z,74294.98
2018-06-02T21:17:11.031Z,74310.16
2018-06-02T21:19:40.618Z,74325.34
2018-06-02T21:22:09.912Z,74355.70
2018-06-02T21:24:39.297Z,74338.49
2018-06-02T21:27:08.837Z,74330.39
2018-06-02T21:29:38.275Z,74349.63
2018-06-02T21:32:08.078Z,74367.84
2018-06-02T21:34:37.414Z,74356.70
2018-06-02T21:37:06.767Z,74355.70
2018-06-02T21:39:36.198Z,74356.70
2018-06-02T21:42:05.656Z,74415.39
2018-06-02T21:44:34.965Z,74418.42
2018-06-02T21:47:04.313Z,74386.05
2018-06-02T21:49:33.646Z,74393.13
2018-06-02T21:52:04.128Z,74414.38
2018-06-02T21:54:33.575Z,74443.73
2018-06-02T21:57:03.215Z,74400.22
2018-06-02T21:59:33.040Z,74405.27
2018-06-02T22:02:02.425Z,74389.08
2018-06-02T22:04:32.963Z,74394.14
2018-06-02T22:07:03.025Z,74389.08
2018-06-02T22:09:32.490Z,74391.11
2018-06-02T22:12:01.914Z,74408.31
2018-06-02T22:14:32.084Z,74407.30
2018-06-02T22:17:01.556Z,74417.42
2018-06-02T22:19:30.908Z,74421.47
2018-06-02T22:22:00.558Z,74425.52
2018-06-02T22:24:29.876Z,74410.34
2018-06-02T22:26:59.228Z,74445.75
2018-06-02T22:29:29.145Z,74434.62
2018-06-02T22:31:58.583Z,74464.97
2018-06-02T22:34:27.856Z,74452.83
2018-06-02T22:36:57.831Z,74450.81
2018-06-02T22:39:27.364Z,74459.92
2018-06-02T22:41:56.670Z,74467.00
2018-06-02T22:44:26.707Z,74474.08
2018-06-02T22:46:56.340Z,74452.83
2018-06-02T22:49:25.665Z,74452.83
2018-06-02T22:51:59.817Z,74475.09
2018-06-02T22:54:29.279Z,74479.14
2018-06-02T22:56:58.957Z,74487.23
2018-06-02T22:59:28.564Z,74501.41
2018-06-02T23:01:58.507Z,74497.36
2018-06-02T23:04:28.876Z,74504.44
2018-06-02T23:06:59.028Z,74504.44
2018-06-02T23:09:28.907Z,74504.44
2018-06-02T23:11:58.948Z,74506.47
2018-06-02T23:14:28.491Z,74517.59
2018-06-02T23:16:58.236Z,74503.42
2018-06-02T23:19:28.156Z,74520.63
2018-06-02T23:21:57.755Z,74527.72
2018-06-02T23:24:27.238Z,74558.07
2018-06-02T23:26:56.818Z,74556.05
2018-06-02T23:29:26.684Z,74521.64
2018-06-02T23:31:56.135Z,74538.84
2018-06-02T23:34:25.969Z,74519.62
2018-06-02T23:36:55.699Z,74536.82
2018-06-02T23:39:24.970Z,74539.86
2018-06-02T23:41:54.319Z,74553.01
2018-06-02T23:44:23.981Z,74553.01
2018-06-02T23:46:54.218Z,74561.11
2018-06-02T23:49:23.613Z,74556.05
2018-06-02T23:51:53.549Z,74565.16
2018-06-02T23:54:23.157Z,74561.11
2018-06-02T23:56:52.438Z,74571.22
2018-06-02T23:59:22.237Z,74571.22
